Kezdőlap
METAR-TAF:

METAR-TAF

Repülőterek :

Yap, Mikronézia

földrajzi szélesség: 09-29N, földrajzi hosszúság: 138-05E, magasság: 28 m

Jelenlegi meteorológiai megfigyelések

A jelentés 23 perccel ezelõtt készült, 12:50 UTC
Különbözõ irányokból fújó szél 5 kt
Hőmérséklet 27°C
Páratartalom 79%
Légköri nyomás 1011 hPa
Látótávolság: 19.3 km
Kevés felhő 1600 lábon
Szórványos felhőzet 13000 lábon
Szakadozott felhőzet 30000 lábon

METAR: PTYA 211250Z VRB05KT 12SM FEW016 SCT130 BKN300 27/23 A2984 RMK SLP107 T02700232

Idő: 23:13 (13:13 UTC)

Előrejelzés

A jelentés 1 órával és 50 perccel ezelõtt készült, 11:23 UTC
Az előrejelzés 21-én 12 óra UTC és 22-én 12 óra UTC között érvényes
Kelet-északkeleti szél 11 kt
Látótávolság: 10 km
Kevés felhő 1600 lábon

TAF: PTYA 211123Z 2112/2212 06011KT P6SM FEW016

Meteorológiai megfigyelések és előrejelzések több, mint 4000 repülőtéren (METAR és TAF jelentéseket).

A térképen piros és sárga pontok jelzik az elérhető meteorológiai állomásokat.

Mozgassa az egeret a pont fölött, hogy megjelenjen az állomás neve.

Azután kattintson az időjárási megfigyelések és előrejelzések megtekintéséhez.

A térkép megváltoztatása: kattintson a fekete keresztel jelölt zöld gombra ráközelítéshez, a vonallal jelölt zöld gombra távolításhoz, vagy a zöld nyilakra a szomszédos térképek eléréséhez.


METAR-TAF: